sensor_id;sensor_type;location;lat;lon;timestamp;P1;durP1;ratioP1;P2;durP2;ratioP2
71303;SDS011;59091;47.446;19.148;2023-05-07T00:01:55;19.55;;;14.43;;
71303;SDS011;59091;47.446;19.148;2023-05-07T00:04:21;20.77;;;15.05;;
71303;SDS011;59091;47.446;19.148;2023-05-07T00:06:46;18.55;;;14.45;;
71303;SDS011;59091;47.446;19.148;2023-05-07T00:09:11;19.42;;;14.45;;
71303;SDS011;59091;47.446;19.148;2023-05-07T00:11:37;21.73;;;14.45;;
71303;SDS011;59091;47.446;19.148;2023-05-07T00:14:03;23.55;;;15.23;;
71303;SDS011;59091;47.446;19.148;2023-05-07T00:16:28;19.83;;;14.55;;
71303;SDS011;59091;47.446;19.148;2023-05-07T00:18:53;18.80;;;14.60;;
71303;SDS011;59091;47.446;19.148;2023-05-07T00:21:19;22.63;;;14.50;;
71303;SDS011;59091;47.446;19.148;2023-05-07T00:23:46;20.50;;;14.63;;
71303;SDS011;59091;47.446;19.148;2023-05-07T00:26:12;20.13;;;14.98;;
71303;SDS011;59091;47.446;19.148;2023-05-07T00:28:37;21.80;;;14.40;;
71303;SDS011;59091;47.446;19.148;2023-05-07T00:31:03;21.52;;;14.95;;
71303;SDS011;59091;47.446;19.148;2023-05-07T00:33:28;21.13;;;14.95;;
71303;SDS011;59091;47.446;19.148;2023-05-07T00:35:53;20.60;;;13.88;;
71303;SDS011;59091;47.446;19.148;2023-05-07T00:38:19;20.40;;;14.30;;
71303;SDS011;59091;47.446;19.148;2023-05-07T00:40:45;21.08;;;14.70;;
71303;SDS011;59091;47.446;19.148;2023-05-07T00:43:10;19.27;;;13.55;;
71303;SDS011;59091;47.446;19.148;2023-05-07T00:45:37;17.65;;;14.70;;
71303;SDS011;59091;47.446;19.148;2023-05-07T00:48:03;19.65;;;14.23;;
71303;SDS011;59091;47.446;19.148;2023-05-07T00:50:29;25.08;;;14.60;;
71303;SDS011;59091;47.446;19.148;2023-05-07T00:52:55;18.90;;;14.30;;
71303;SDS011;59091;47.446;19.148;2023-05-07T00:55:22;21.90;;;15.32;;
71303;SDS011;59091;47.446;19.148;2023-05-07T00:57:48;19.40;;;14.93;;
71303;SDS011;59091;47.446;19.148;2023-05-07T01:00:15;19.08;;;14.48;;
71303;SDS011;59091;47.446;19.148;2023-05-07T01:02:41;24.55;;;14.32;;
71303;SDS011;59091;47.446;19.148;2023-05-07T01:05:07;21.45;;;14.40;;
71303;SDS011;59091;47.446;19.148;2023-05-07T01:07:36;18.60;;;13.98;;
71303;SDS011;59091;47.446;19.148;2023-05-07T01:10:03;19.10;;;14.10;;
71303;SDS011;59091;47.446;19.148;2023-05-07T01:12:30;19.77;;;14.20;;
71303;SDS011;59091;47.446;19.148;2023-05-07T01:14:56;21.38;;;14.40;;
71303;SDS011;59091;47.446;19.148;2023-05-07T01:17:22;20.23;;;15.15;;
71303;SDS011;59091;47.446;19.148;2023-05-07T01:19:48;19.45;;;14.18;;
71303;SDS011;59091;47.446;19.148;2023-05-07T01:22:15;18.90;;;14.63;;
71303;SDS011;59091;47.446;19.148;2023-05-07T01:24:42;20.70;;;14.43;;
71303;SDS011;59091;47.446;19.148;2023-05-07T01:27:07;19.75;;;14.18;;
71303;SDS011;59091;47.446;19.148;2023-05-07T01:29:33;19.30;;;14.70;;
71303;SDS011;59091;47.446;19.148;2023-05-07T01:31:59;19.75;;;14.15;;
71303;SDS011;59091;47.446;19.148;2023-05-07T01:34:26;21.02;;;15.10;;
71303;SDS011;59091;47.446;19.148;2023-05-07T01:36:54;20.77;;;15.10;;
71303;SDS011;59091;47.446;19.148;2023-05-07T01:39:24;21.75;;;14.43;;
71303;SDS011;59091;47.446;19.148;2023-05-07T01:41:50;23.30;;;14.35;;
71303;SDS011;59091;47.446;19.148;2023-05-07T01:44:16;16.35;;;13.25;;
71303;SDS011;59091;47.446;19.148;2023-05-07T01:46:43;20.45;;;14.32;;
71303;SDS011;59091;47.446;19.148;2023-05-07T01:49:09;22.00;;;13.75;;
71303;SDS011;59091;47.446;19.148;2023-05-07T01:51:34;23.35;;;14.30;;
71303;SDS011;59091;47.446;19.148;2023-05-07T01:54:00;18.52;;;14.07;;
71303;SDS011;59091;47.446;19.148;2023-05-07T01:56:26;20.95;;;14.98;;
71303;SDS011;59091;47.446;19.148;2023-05-07T01:58:51;20.17;;;14.63;;
71303;SDS011;59091;47.446;19.148;2023-05-07T02:01:17;19.13;;;14.20;;
71303;SDS011;59091;47.446;19.148;2023-05-07T02:03:43;18.63;;;13.50;;
71303;SDS011;59091;47.446;19.148;2023-05-07T02:06:09;18.15;;;13.68;;
71303;SDS011;59091;47.446;19.148;2023-05-07T02:08:35;21.25;;;14.30;;
71303;SDS011;59091;47.446;19.148;2023-05-07T02:11:00;19.20;;;13.48;;
71303;SDS011;59091;47.446;19.148;2023-05-07T02:13:28;19.42;;;13.32;;
71303;SDS011;59091;47.446;19.148;2023-05-07T02:15:54;16.63;;;13.15;;
71303;SDS011;59091;47.446;19.148;2023-05-07T02:18:20;19.98;;;12.70;;
71303;SDS011;59091;47.446;19.148;2023-05-07T02:20:45;17.33;;;12.80;;
71303;SDS011;59091;47.446;19.148;2023-05-07T02:23:11;16.83;;;12.63;;
71303;SDS011;59091;47.446;19.148;2023-05-07T02:25:36;16.15;;;12.40;;
71303;SDS011;59091;47.446;19.148;2023-05-07T02:28:03;16.13;;;12.23;;
71303;SDS011;59091;47.446;19.148;2023-05-07T02:30:28;17.40;;;11.00;;
71303;SDS011;59091;47.446;19.148;2023-05-07T02:32:53;16.83;;;12.60;;
71303;SDS011;59091;47.446;19.148;2023-05-07T02:35:19;17.38;;;11.95;;
71303;SDS011;59091;47.446;19.148;2023-05-07T02:37:44;17.00;;;12.63;;
71303;SDS011;59091;47.446;19.148;2023-05-07T02:40:10;17.65;;;12.13;;
71303;SDS011;59091;47.446;19.148;2023-05-07T02:42:37;15.02;;;11.30;;
71303;SDS011;59091;47.446;19.148;2023-05-07T02:45:03;16.75;;;12.02;;
71303;SDS011;59091;47.446;19.148;2023-05-07T02:47:29;15.15;;;11.40;;
71303;SDS011;59091;47.446;19.148;2023-05-07T02:49:54;15.63;;;10.88;;
71303;SDS011;59091;47.446;19.148;2023-05-07T02:52:21;16.27;;;11.40;;
71303;SDS011;59091;47.446;19.148;2023-05-07T02:54:46;16.33;;;11.88;;
71303;SDS011;59091;47.446;19.148;2023-05-07T02:57:12;18.55;;;11.00;;
71303;SDS011;59091;47.446;19.148;2023-05-07T02:59:37;16.38;;;11.93;;
71303;SDS011;59091;47.446;19.148;2023-05-07T03:02:03;17.02;;;10.57;;
71303;SDS011;59091;47.446;19.148;2023-05-07T03:04:28;14.63;;;10.57;;
71303;SDS011;59091;47.446;19.148;2023-05-07T03:06:53;15.80;;;11.25;;
71303;SDS011;59091;47.446;19.148;2023-05-07T03:09:19;15.23;;;10.82;;
71303;SDS011;59091;47.446;19.148;2023-05-07T03:11:45;18.00;;;11.25;;
71303;SDS011;59091;47.446;19.148;2023-05-07T03:14:10;18.15;;;11.07;;
71303;SDS011;59091;47.446;19.148;2023-05-07T03:16:36;14.68;;;11.05;;
71303;SDS011;59091;47.446;19.148;2023-05-07T03:19:01;17.92;;;10.80;;
71303;SDS011;59091;47.446;19.148;2023-05-07T03:21:27;15.13;;;10.68;;
71303;SDS011;59091;47.446;19.148;2023-05-07T03:23:53;16.33;;;11.38;;
71303;SDS011;59091;47.446;19.148;2023-05-07T03:26:18;21.33;;;11.55;;
71303;SDS011;59091;47.446;19.148;2023-05-07T03:28:43;16.00;;;11.60;;
71303;SDS011;59091;47.446;19.148;2023-05-07T03:31:09;16.33;;;11.10;;
71303;SDS011;59091;47.446;19.148;2023-05-07T03:33:34;18.83;;;11.07;;
71303;SDS011;59091;47.446;19.148;2023-05-07T03:36:00;22.42;;;13.13;;
71303;SDS011;59091;47.446;19.148;2023-05-07T03:38:26;19.88;;;14.77;;
71303;SDS011;59091;47.446;19.148;2023-05-07T03:40:51;20.90;;;14.77;;
71303;SDS011;59091;47.446;19.148;2023-05-07T03:43:17;21.42;;;13.95;;
71303;SDS011;59091;47.446;19.148;2023-05-07T03:45:42;18.48;;;13.85;;
71303;SDS011;59091;47.446;19.148;2023-05-07T03:48:08;21.15;;;14.63;;
71303;SDS011;59091;47.446;19.148;2023-05-07T03:50:33;21.38;;;15.20;;
71303;SDS011;59091;47.446;19.148;2023-05-07T03:52:58;22.15;;;15.32;;
71303;SDS011;59091;47.446;19.148;2023-05-07T03:55:24;20.77;;;15.18;;
71303;SDS011;59091;47.446;19.148;2023-05-07T03:57:50;31.13;;;17.83;;
71303;SDS011;59091;47.446;19.148;2023-05-07T04:00:15;23.48;;;17.23;;
71303;SDS011;59091;47.446;19.148;2023-05-07T04:02:41;26.27;;;17.70;;
71303;SDS011;59091;47.446;19.148;2023-05-07T04:05:07;25.33;;;17.25;;
71303;SDS011;59091;47.446;19.148;2023-05-07T04:07:32;27.73;;;18.95;;
71303;SDS011;59091;47.446;19.148;2023-05-07T04:09:58;26.52;;;17.70;;
71303;SDS011;59091;47.446;19.148;2023-05-07T04:12:23;27.40;;;18.00;;
71303;SDS011;59091;47.446;19.148;2023-05-07T04:14:49;24.85;;;17.55;;
71303;SDS011;59091;47.446;19.148;2023-05-07T04:17:15;26.20;;;17.40;;
71303;SDS011;59091;47.446;19.148;2023-05-07T04:19:40;24.77;;;17.83;;
71303;SDS011;59091;47.446;19.148;2023-05-07T04:22:10;24.98;;;17.70;;
71303;SDS011;59091;47.446;19.148;2023-05-07T04:24:35;24.65;;;17.58;;
71303;SDS011;59091;47.446;19.148;2023-05-07T04:27:01;27.77;;;18.73;;
71303;SDS011;59091;47.446;19.148;2023-05-07T04:29:26;26.50;;;17.77;;
71303;SDS011;59091;47.446;19.148;2023-05-07T04:31:52;31.13;;;17.85;;
71303;SDS011;59091;47.446;19.148;2023-05-07T04:34:17;28.48;;;17.23;;
71303;SDS011;59091;47.446;19.148;2023-05-07T04:36:43;26.98;;;17.77;;
71303;SDS011;59091;47.446;19.148;2023-05-07T04:39:08;29.20;;;17.77;;
71303;SDS011;59091;47.446;19.148;2023-05-07T04:41:35;26.60;;;17.70;;
71303;SDS011;59091;47.446;19.148;2023-05-07T04:44:01;27.90;;;18.70;;
71303;SDS011;59091;47.446;19.148;2023-05-07T04:46:30;24.15;;;18.20;;
71303;SDS011;59091;47.446;19.148;2023-05-07T04:48:55;24.10;;;15.60;;
71303;SDS011;59091;47.446;19.148;2023-05-07T04:51:21;19.48;;;14.57;;
71303;SDS011;59091;47.446;19.148;2023-05-07T04:53:46;19.13;;;14.07;;
71303;SDS011;59091;47.446;19.148;2023-05-07T04:56:12;24.00;;;15.13;;
71303;SDS011;59091;47.446;19.148;2023-05-07T04:58:37;22.88;;;14.85;;
71303;SDS011;59091;47.446;19.148;2023-05-07T05:01:03;22.10;;;15.48;;
71303;SDS011;59091;47.446;19.148;2023-05-07T05:03:28;27.52;;;14.02;;
71303;SDS011;59091;47.446;19.148;2023-05-07T05:05:55;17.98;;;14.10;;
71303;SDS011;59091;47.446;19.148;2023-05-07T05:08:20;19.85;;;13.63;;
71303;SDS011;59091;47.446;19.148;2023-05-07T05:10:45;16.85;;;12.50;;
71303;SDS011;59091;47.446;19.148;2023-05-07T05:13:13;17.05;;;11.05;;
71303;SDS011;59091;47.446;19.148;2023-05-07T05:15:39;15.18;;;11.02;;
71303;SDS011;59091;47.446;19.148;2023-05-07T05:18:04;13.48;;;11.10;;
71303;SDS011;59091;47.446;19.148;2023-05-07T05:20:30;14.75;;;10.75;;
71303;SDS011;59091;47.446;19.148;2023-05-07T05:22:55;15.73;;;10.40;;
71303;SDS011;59091;47.446;19.148;2023-05-07T05:25:21;14.63;;;11.02;;
71303;SDS011;59091;47.446;19.148;2023-05-07T05:27:46;12.98;;;9.65;;
71303;SDS011;59091;47.446;19.148;2023-05-07T05:30:12;12.73;;;10.43;;
71303;SDS011;59091;47.446;19.148;2023-05-07T05:32:38;15.48;;;10.88;;
71303;SDS011;59091;47.446;19.148;2023-05-07T05:35:03;16.75;;;10.13;;
71303;SDS011;59091;47.446;19.148;2023-05-07T05:37:29;11.27;;;9.40;;
71303;SDS011;59091;47.446;19.148;2023-05-07T05:39:56;14.32;;;10.00;;
71303;SDS011;59091;47.446;19.148;2023-05-07T05:42:21;17.10;;;10.88;;
71303;SDS011;59091;47.446;19.148;2023-05-07T05:44:47;11.63;;;9.93;;
71303;SDS011;59091;47.446;19.148;2023-05-07T05:47:12;15.18;;;10.30;;
71303;SDS011;59091;47.446;19.148;2023-05-07T05:49:38;12.77;;;9.82;;
71303;SDS011;59091;47.446;19.148;2023-05-07T05:52:04;14.00;;;10.02;;
71303;SDS011;59091;47.446;19.148;2023-05-07T05:54:29;12.82;;;9.80;;
71303;SDS011;59091;47.446;19.148;2023-05-07T05:56:55;12.85;;;9.30;;
71303;SDS011;59091;47.446;19.148;2023-05-07T05:59:20;11.70;;;9.45;;
71303;SDS011;59091;47.446;19.148;2023-05-07T06:01:46;12.90;;;9.13;;
71303;SDS011;59091;47.446;19.148;2023-05-07T06:04:11;13.63;;;9.15;;
71303;SDS011;59091;47.446;19.148;2023-05-07T06:06:37;9.77;;;7.30;;
71303;SDS011;59091;47.446;19.148;2023-05-07T06:09:02;10.85;;;9.02;;
71303;SDS011;59091;47.446;19.148;2023-05-07T06:11:28;10.75;;;8.05;;
71303;SDS011;59091;47.446;19.148;2023-05-07T06:13:53;16.15;;;8.50;;
71303;SDS011;59091;47.446;19.148;2023-05-07T06:16:19;12.23;;;9.05;;
71303;SDS011;59091;47.446;19.148;2023-05-07T06:18:44;14.98;;;8.90;;
71303;SDS011;59091;47.446;19.148;2023-05-07T06:21:11;13.43;;;9.30;;
71303;SDS011;59091;47.446;19.148;2023-05-07T06:23:38;12.02;;;8.57;;
71303;SDS011;59091;47.446;19.148;2023-05-07T06:26:05;11.80;;;8.75;;
71303;SDS011;59091;47.446;19.148;2023-05-07T06:28:31;17.45;;;9.05;;
71303;SDS011;59091;47.446;19.148;2023-05-07T06:31:16;10.68;;;8.10;;
71303;SDS011;59091;47.446;19.148;2023-05-07T06:33:43;9.82;;;7.75;;
71303;SDS011;59091;47.446;19.148;2023-05-07T06:36:09;7.95;;;7.18;;
71303;SDS011;59091;47.446;19.148;2023-05-07T06:38:35;7.40;;;6.55;;
71303;SDS011;59091;47.446;19.148;2023-05-07T06:41:01;9.73;;;7.15;;
71303;SDS011;59091;47.446;19.148;2023-05-07T06:43:26;8.35;;;6.18;;
71303;SDS011;59091;47.446;19.148;2023-05-07T06:45:51;9.35;;;6.22;;
71303;SDS011;59091;47.446;19.148;2023-05-07T06:48:17;7.10;;;6.20;;
71303;SDS011;59091;47.446;19.148;2023-05-07T06:50:42;10.13;;;5.57;;
71303;SDS011;59091;47.446;19.148;2023-05-07T06:53:08;6.78;;;5.57;;
71303;SDS011;59091;47.446;19.148;2023-05-07T06:55:33;6.22;;;5.30;;
71303;SDS011;59091;47.446;19.148;2023-05-07T06:57:58;8.65;;;5.85;;
71303;SDS011;59091;47.446;19.148;2023-05-07T07:00:26;8.07;;;5.57;;
71303;SDS011;59091;47.446;19.148;2023-05-07T07:02:52;5.50;;;5.00;;
71303;SDS011;59091;47.446;19.148;2023-05-07T07:05:18;7.90;;;5.03;;
71303;SDS011;59091;47.446;19.148;2023-05-07T07:07:44;5.65;;;4.85;;
71303;SDS011;59091;47.446;19.148;2023-05-07T07:10:09;5.68;;;5.07;;
71303;SDS011;59091;47.446;19.148;2023-05-07T07:12:35;6.70;;;4.97;;
71303;SDS011;59091;47.446;19.148;2023-05-07T07:15:00;6.35;;;4.75;;
71303;SDS011;59091;47.446;19.148;2023-05-07T07:17:26;8.27;;;5.18;;
71303;SDS011;59091;47.446;19.148;2023-05-07T07:19:51;5.03;;;4.13;;
71303;SDS011;59091;47.446;19.148;2023-05-07T07:22:17;4.95;;;4.30;;
71303;SDS011;59091;47.446;19.148;2023-05-07T07:24:42;4.25;;;3.85;;
71303;SDS011;59091;47.446;19.148;2023-05-07T07:27:07;4.18;;;3.55;;
71303;SDS011;59091;47.446;19.148;2023-05-07T07:29:33;13.50;;;3.50;;
71303;SDS011;59091;47.446;19.148;2023-05-07T07:31:58;3.58;;;3.28;;
71303;SDS011;59091;47.446;19.148;2023-05-07T07:34:24;5.22;;;3.42;;
71303;SDS011;59091;47.446;19.148;2023-05-07T07:36:49;2.92;;;2.53;;
71303;SDS011;59091;47.446;19.148;2023-05-07T07:39:14;3.25;;;2.70;;
71303;SDS011;59091;47.446;19.148;2023-05-07T07:41:40;3.58;;;2.65;;
71303;SDS011;59091;47.446;19.148;2023-05-07T07:44:05;4.63;;;2.58;;
71303;SDS011;59091;47.446;19.148;2023-05-07T07:46:32;3.00;;;2.72;;
71303;SDS011;59091;47.446;19.148;2023-05-07T07:48:58;2.58;;;2.38;;
71303;SDS011;59091;47.446;19.148;2023-05-07T07:51:24;2.60;;;2.40;;
71303;SDS011;59091;47.446;19.148;2023-05-07T07:53:50;5.15;;;3.00;;
71303;SDS011;59091;47.446;19.148;2023-05-07T07:56:15;3.05;;;2.58;;
71303;SDS011;59091;47.446;19.148;2023-05-07T07:58:41;3.55;;;2.78;;
71303;SDS011;59091;47.446;19.148;2023-05-07T08:01:06;5.90;;;2.70;;
71303;SDS011;59091;47.446;19.148;2023-05-07T08:03:32;3.92;;;2.92;;
71303;SDS011;59091;47.446;19.148;2023-05-07T08:05:58;5.60;;;3.00;;
71303;SDS011;59091;47.446;19.148;2023-05-07T08:08:23;10.07;;;2.92;;
71303;SDS011;59091;47.446;19.148;2023-05-07T08:10:48;2.90;;;2.60;;
71303;SDS011;59091;47.446;19.148;2023-05-07T08:13:15;3.70;;;2.60;;
71303;SDS011;59091;47.446;19.148;2023-05-07T08:15:41;2.80;;;2.60;;
71303;SDS011;59091;47.446;19.148;2023-05-07T08:18:06;4.97;;;3.10;;
71303;SDS011;59091;47.446;19.148;2023-05-07T08:20:32;5.28;;;3.50;;
71303;SDS011;59091;47.446;19.148;2023-05-07T08:22:58;7.90;;;2.90;;
71303;SDS011;59091;47.446;19.148;2023-05-07T08:25:23;2.63;;;2.42;;
71303;SDS011;59091;47.446;19.148;2023-05-07T08:27:49;2.60;;;2.40;;
71303;SDS011;59091;47.446;19.148;2023-05-07T08:30:15;3.25;;;2.70;;
71303;SDS011;59091;47.446;19.148;2023-05-07T08:32:40;2.80;;;2.47;;
71303;SDS011;59091;47.446;19.148;2023-05-07T08:35:06;18.00;;;4.32;;
71303;SDS011;59091;47.446;19.148;2023-05-07T08:37:32;4.15;;;2.83;;
71303;SDS011;59091;47.446;19.148;2023-05-07T08:39:57;3.50;;;2.70;;
71303;SDS011;59091;47.446;19.148;2023-05-07T08:42:23;2.70;;;2.50;;
71303;SDS011;59091;47.446;19.148;2023-05-07T08:44:50;5.32;;;2.60;;
71303;SDS011;59091;47.446;19.148;2023-05-07T08:47:18;2.85;;;2.63;;
71303;SDS011;59091;47.446;19.148;2023-05-07T08:49:44;2.97;;;2.60;;
71303;SDS011;59091;47.446;19.148;2023-05-07T08:52:11;2.58;;;2.42;;
71303;SDS011;59091;47.446;19.148;2023-05-07T08:54:37;3.15;;;2.70;;
71303;SDS011;59091;47.446;19.148;2023-05-07T08:57:04;4.68;;;2.72;;
71303;SDS011;59091;47.446;19.148;2023-05-07T08:59:29;3.28;;;2.60;;
71303;SDS011;59091;47.446;19.148;2023-05-07T09:01:55;3.83;;;3.15;;
71303;SDS011;59091;47.446;19.148;2023-05-07T09:04:20;3.70;;;2.97;;
71303;SDS011;59091;47.446;19.148;2023-05-07T09:06:46;3.72;;;3.00;;
71303;SDS011;59091;47.446;19.148;2023-05-07T09:09:16;3.97;;;3.03;;
71303;SDS011;59091;47.446;19.148;2023-05-07T09:11:45;5.27;;;3.17;;
71303;SDS011;59091;47.446;19.148;2023-05-07T09:14:11;3.42;;;3.15;;
71303;SDS011;59091;47.446;19.148;2023-05-07T09:16:36;3.38;;;3.08;;
71303;SDS011;59091;47.446;19.148;2023-05-07T09:19:02;4.95;;;3.60;;
71303;SDS011;59091;47.446;19.148;2023-05-07T09:21:27;5.30;;;3.00;;
71303;SDS011;59091;47.446;19.148;2023-05-07T09:23:54;5.90;;;3.13;;
71303;SDS011;59091;47.446;19.148;2023-05-07T09:26:21;4.22;;;3.20;;
71303;SDS011;59091;47.446;19.148;2023-05-07T09:28:47;5.53;;;3.40;;
71303;SDS011;59091;47.446;19.148;2023-05-07T09:31:13;3.65;;;3.17;;
71303;SDS011;59091;47.446;19.148;2023-05-07T09:33:39;4.20;;;3.30;;
71303;SDS011;59091;47.446;19.148;2023-05-07T09:36:05;5.00;;;3.30;;
71303;SDS011;59091;47.446;19.148;2023-05-07T09:38:32;4.30;;;3.90;;
71303;SDS011;59091;47.446;19.148;2023-05-07T09:41:05;6.90;;;3.90;;
71303;SDS011;59091;47.446;19.148;2023-05-07T09:43:35;5.47;;;3.40;;
71303;SDS011;59091;47.446;19.148;2023-05-07T09:46:04;5.10;;;4.03;;
71303;SDS011;59091;47.446;19.148;2023-05-07T09:48:38;13.35;;;3.88;;
71303;SDS011;59091;47.446;19.148;2023-05-07T09:51:51;6.28;;;4.35;;
71303;SDS011;59091;47.446;19.148;2023-05-07T09:53:56;4.22;;;3.45;;
71303;SDS011;59091;47.446;19.148;2023-05-07T09:56:22;4.60;;;3.70;;
71303;SDS011;59091;47.446;19.148;2023-05-07T09:58:49;4.32;;;3.92;;
71303;SDS011;59091;47.446;19.148;2023-05-07T10:01:16;5.38;;;3.70;;
71303;SDS011;59091;47.446;19.148;2023-05-07T10:03:44;6.32;;;3.47;;
71303;SDS011;59091;47.446;19.148;2023-05-07T10:06:10;6.38;;;3.40;;
71303;SDS011;59091;47.446;19.148;2023-05-07T10:08:38;6.68;;;3.65;;
71303;SDS011;59091;47.446;19.148;2023-05-07T10:11:05;7.70;;;3.60;;
71303;SDS011;59091;47.446;19.148;2023-05-07T10:13:33;6.57;;;3.13;;
71303;SDS011;59091;47.446;19.148;2023-05-07T10:16:03;5.75;;;3.22;;
71303;SDS011;59091;47.446;19.148;2023-05-07T10:18:30;6.10;;;3.40;;
71303;SDS011;59091;47.446;19.148;2023-05-07T10:20:59;4.82;;;3.03;;
71303;SDS011;59091;47.446;19.148;2023-05-07T10:23:31;4.25;;;3.30;;
71303;SDS011;59091;47.446;19.148;2023-05-07T10:25:57;4.68;;;3.22;;
71303;SDS011;59091;47.446;19.148;2023-05-07T10:28:23;3.33;;;2.97;;
71303;SDS011;59091;47.446;19.148;2023-05-07T10:31:14;4.43;;;2.65;;
71303;SDS011;59091;47.446;19.148;2023-05-07T10:33:55;3.38;;;3.08;;
71303;SDS011;59091;47.446;19.148;2023-05-07T10:36:22;5.45;;;3.60;;
71303;SDS011;59091;47.446;19.148;2023-05-07T10:38:49;3.60;;;3.30;;
71303;SDS011;59091;47.446;19.148;2023-05-07T10:41:15;4.18;;;3.35;;
71303;SDS011;59091;47.446;19.148;2023-05-07T10:43:42;4.10;;;3.67;;
71303;SDS011;59091;47.446;19.148;2023-05-07T10:46:19;3.55;;;3.25;;
71303;SDS011;59091;47.446;19.148;2023-05-07T10:49:19;4.50;;;3.47;;
71303;SDS011;59091;47.446;19.148;2023-05-07T10:51:38;6.15;;;3.15;;
71303;SDS011;59091;47.446;19.148;2023-05-07T10:56:36;4.25;;;3.50;;
71303;SDS011;59091;47.446;19.148;2023-05-07T11:02:06;4.18;;;3.05;;
71303;SDS011;59091;47.446;19.148;2023-05-07T11:04:34;5.15;;;3.53;;
71303;SDS011;59091;47.446;19.148;2023-05-07T11:15:08;3.22;;;2.92;;
71303;SDS011;59091;47.446;19.148;2023-05-07T11:17:35;3.17;;;2.88;;
71303;SDS011;59091;47.446;19.148;2023-05-07T11:20:20;3.38;;;2.95;;
71303;SDS011;59091;47.446;19.148;2023-05-07T11:22:46;3.30;;;3.00;;
71303;SDS011;59091;47.446;19.148;2023-05-07T11:25:17;4.95;;;3.10;;
71303;SDS011;59091;47.446;19.148;2023-05-07T11:27:44;6.05;;;3.30;;
71303;SDS011;59091;47.446;19.148;2023-05-07T11:30:10;3.88;;;3.00;;
71303;SDS011;59091;47.446;19.148;2023-05-07T11:32:42;5.63;;;3.27;;
71303;SDS011;59091;47.446;19.148;2023-05-07T11:35:08;3.55;;;3.25;;
71303;SDS011;59091;47.446;19.148;2023-05-07T11:37:34;11.93;;;3.55;;
71303;SDS011;59091;47.446;19.148;2023-05-07T11:40:06;4.28;;;3.10;;
71303;SDS011;59091;47.446;19.148;2023-05-07T11:42:33;3.55;;;2.92;;
71303;SDS011;59091;47.446;19.148;2023-05-07T11:45:00;5.60;;;3.67;;
71303;SDS011;59091;47.446;19.148;2023-05-07T11:47:26;6.25;;;3.00;;
71303;SDS011;59091;47.446;19.148;2023-05-07T11:49:55;5.13;;;3.10;;
71303;SDS011;59091;47.446;19.148;2023-05-07T11:52:22;4.25;;;3.60;;
71303;SDS011;59091;47.446;19.148;2023-05-07T11:54:49;4.72;;;3.67;;
71303;SDS011;59091;47.446;19.148;2023-05-07T11:57:15;3.65;;;3.35;;
71303;SDS011;59091;47.446;19.148;2023-05-07T11:59:40;3.80;;;3.50;;
71303;SDS011;59091;47.446;19.148;2023-05-07T12:02:06;4.25;;;3.45;;
71303;SDS011;59091;47.446;19.148;2023-05-07T12:04:32;3.33;;;3.03;;
71303;SDS011;59091;47.446;19.148;2023-05-07T12:06:57;3.35;;;3.10;;
71303;SDS011;59091;47.446;19.148;2023-05-07T12:09:23;3.40;;;3.10;;
71303;SDS011;59091;47.446;19.148;2023-05-07T12:11:48;4.53;;;3.00;;
71303;SDS011;59091;47.446;19.148;2023-05-07T12:14:16;3.75;;;2.53;;
71303;SDS011;59091;47.446;19.148;2023-05-07T12:16:41;3.10;;;2.85;;
71303;SDS011;59091;47.446;19.148;2023-05-07T12:19:07;2.67;;;2.47;;
71303;SDS011;59091;47.446;19.148;2023-05-07T12:21:37;2.90;;;2.50;;
71303;SDS011;59091;47.446;19.148;2023-05-07T12:24:03;3.05;;;2.85;;
71303;SDS011;59091;47.446;19.148;2023-05-07T12:26:29;4.60;;;2.72;;
71303;SDS011;59091;47.446;19.148;2023-05-07T12:28:54;5.80;;;3.30;;
71303;SDS011;59091;47.446;19.148;2023-05-07T12:31:20;3.47;;;3.00;;
71303;SDS011;59091;47.446;19.148;2023-05-07T12:33:45;4.07;;;2.75;;
71303;SDS011;59091;47.446;19.148;2023-05-07T12:36:12;5.85;;;3.13;;
71303;SDS011;59091;47.446;19.148;2023-05-07T12:38:38;3.50;;;3.08;;
71303;SDS011;59091;47.446;19.148;2023-05-07T12:41:05;4.07;;;2.92;;
71303;SDS011;59091;47.446;19.148;2023-05-07T12:43:37;5.38;;;2.85;;
71303;SDS011;59091;47.446;19.148;2023-05-07T12:46:06;4.75;;;3.00;;
71303;SDS011;59091;47.446;19.148;2023-05-07T12:48:32;3.10;;;2.80;;
71303;SDS011;59091;47.446;19.148;2023-05-07T12:51:01;4.35;;;3.25;;
71303;SDS011;59091;47.446;19.148;2023-05-07T12:53:28;5.75;;;3.40;;
71303;SDS011;59091;47.446;19.148;2023-05-07T12:55:54;5.90;;;3.40;;
71303;SDS011;59091;47.446;19.148;2023-05-07T12:58:31;3.20;;;2.90;;
71303;SDS011;59091;47.446;19.148;2023-05-07T13:01:01;2.60;;;2.40;;
71303;SDS011;59091;47.446;19.148;2023-05-07T13:03:32;2.85;;;2.65;;
71303;SDS011;59091;47.446;19.148;2023-05-07T13:06:00;3.85;;;2.80;;
71303;SDS011;59091;47.446;19.148;2023-05-07T13:08:31;2.72;;;2.53;;
71303;SDS011;59091;47.446;19.148;2023-05-07T13:11:10;3.20;;;2.70;;
71303;SDS011;59091;47.446;19.148;2023-05-07T13:13:37;3.97;;;2.85;;
71303;SDS011;59091;47.446;19.148;2023-05-07T13:16:04;3.60;;;3.25;;
71303;SDS011;59091;47.446;19.148;2023-05-07T13:18:31;4.13;;;2.97;;
71303;SDS011;59091;47.446;19.148;2023-05-07T13:20:58;3.50;;;3.20;;
71303;SDS011;59091;47.446;19.148;2023-05-07T13:23:24;4.22;;;2.50;;
71303;SDS011;59091;47.446;19.148;2023-05-07T13:25:50;2.60;;;2.40;;
71303;SDS011;59091;47.446;19.148;2023-05-07T13:28:15;7.00;;;2.78;;
71303;SDS011;59091;47.446;19.148;2023-05-07T13:30:41;3.53;;;2.67;;
71303;SDS011;59091;47.446;19.148;2023-05-07T13:33:07;3.72;;;2.75;;
71303;SDS011;59091;47.446;19.148;2023-05-07T13:35:33;3.88;;;2.78;;
71303;SDS011;59091;47.446;19.148;2023-05-07T13:37:59;2.75;;;2.45;;
71303;SDS011;59091;47.446;19.148;2023-05-07T13:40:24;2.83;;;2.63;;
71303;SDS011;59091;47.446;19.148;2023-05-07T13:42:50;3.38;;;2.83;;
71303;SDS011;59091;47.446;19.148;2023-05-07T13:45:16;3.20;;;2.90;;
71303;SDS011;59091;47.446;19.148;2023-05-07T13:47:44;3.20;;;2.58;;
71303;SDS011;59091;47.446;19.148;2023-05-07T13:50:11;5.07;;;2.65;;
71303;SDS011;59091;47.446;19.148;2023-05-07T13:52:39;4.10;;;2.70;;
71303;SDS011;59091;47.446;19.148;2023-05-07T13:55:06;2.95;;;2.65;;
71303;SDS011;59091;47.446;19.148;2023-05-07T13:57:32;5.97;;;2.60;;
71303;SDS011;59091;47.446;19.148;2023-05-07T13:59:57;4.47;;;2.10;;
71303;SDS011;59091;47.446;19.148;2023-05-07T14:02:23;2.92;;;2.30;;
71303;SDS011;59091;47.446;19.148;2023-05-07T14:04:48;2.50;;;2.30;;
71303;SDS011;59091;47.446;19.148;2023-05-07T14:07:13;2.60;;;2.22;;
71303;SDS011;59091;47.446;19.148;2023-05-07T14:09:39;2.30;;;2.10;;
71303;SDS011;59091;47.446;19.148;2023-05-07T14:12:05;5.93;;;2.35;;
71303;SDS011;59091;47.446;19.148;2023-05-07T14:14:31;3.13;;;2.08;;
71303;SDS011;59091;47.446;19.148;2023-05-07T14:16:56;3.10;;;2.10;;
71303;SDS011;59091;47.446;19.148;2023-05-07T14:19:22;20.23;;;2.60;;
71303;SDS011;59091;47.446;19.148;2023-05-07T14:21:48;3.53;;;2.40;;
71303;SDS011;59091;47.446;19.148;2023-05-07T14:24:13;2.97;;;2.40;;
71303;SDS011;59091;47.446;19.148;2023-05-07T14:26:39;4.45;;;2.72;;
71303;SDS011;59091;47.446;19.148;2023-05-07T14:29:04;4.63;;;2.80;;
71303;SDS011;59091;47.446;19.148;2023-05-07T14:31:30;3.10;;;2.70;;
71303;SDS011;59091;47.446;19.148;2023-05-07T14:33:55;3.03;;;2.70;;